createdAt,value
2022-09-23T00:01:10.803Z,98709.19
2022-09-23T00:03:16.436Z,98715.31
2022-09-23T00:05:21.328Z,98715.25
2022-09-23T00:07:26.041Z,98720.44
2022-09-23T00:14:17.803Z,98703.19
2022-09-23T00:16:26.106Z,98710.22
2022-09-23T00:18:30.949Z,98707.75
2022-09-23T00:20:36.243Z,98698.19
2022-09-23T00:22:41.572Z,98701.59
2022-09-23T00:24:46.084Z,98704.28
2022-09-23T00:26:51.085Z,98700.00
2022-09-23T00:28:55.893Z,98703.38
2022-09-23T00:31:05.113Z,98703.44
2022-09-23T00:33:09.888Z,98706.16
2022-09-23T00:35:14.671Z,98699.94
2022-09-23T00:37:19.592Z,98700.78
2022-09-23T00:39:24.353Z,98700.75
2022-09-23T00:41:29.869Z,98692.88
2022-09-23T00:43:43.238Z,98687.69
2022-09-23T00:45:51.190Z,98687.84
2022-09-23T00:48:02.493Z,98687.06
2022-09-23T00:50:12.690Z,98682.84
2022-09-23T00:52:21.081Z,98684.66
2022-09-23T00:54:29.063Z,98688.16
2022-09-23T00:56:35.702Z,98682.13
2022-09-23T00:58:43.847Z,98690.88
2022-09-23T01:00:49.523Z,98687.53
2022-09-23T01:02:54.403Z,98684.19
2022-09-23T01:05:09.771Z,98680.88
2022-09-23T01:07:14.623Z,98688.84
2022-09-23T01:09:19.676Z,98685.50
2022-09-23T01:11:36.976Z,98692.53
2022-09-23T01:13:52.515Z,98687.44
2022-09-23T01:16:08.666Z,98690.03
2022-09-23T01:18:25.336Z,98694.31
2022-09-23T01:20:50.980Z,98690.91
2022-09-23T01:23:05.180Z,98680.06
2022-09-23T01:25:40.870Z,98683.84
2022-09-23T01:28:02.049Z,98686.63
2022-09-23T01:30:28.159Z,98686.78
2022-09-23T01:32:45.506Z,98684.28
2022-09-23T01:35:00.131Z,98683.44
2022-09-23T01:37:12.476Z,98678.97
2022-09-23T01:39:24.984Z,98678.03
2022-09-23T01:41:44.019Z,98678.84
2022-09-23T01:43:57.343Z,98677.16
2022-09-23T01:46:06.575Z,98675.41
2022-09-23T01:48:20.635Z,98673.63
2022-09-23T01:50:42.299Z,98674.50
2022-09-23T01:52:50.024Z,98667.63
2022-09-23T01:55:00.696Z,98665.13
2022-09-23T01:57:10.532Z,98671.28
2022-09-23T01:59:21.331Z,98661.84
2022-09-23T02:01:34.144Z,98665.28
2022-09-23T02:03:47.102Z,98663.63
2022-09-23T02:05:57.035Z,98667.06
2022-09-23T02:08:06.421Z,98662.72
2022-09-23T02:10:16.051Z,98666.16
2022-09-23T02:12:24.596Z,98662.69
2022-09-23T02:14:34.916Z,98659.19
2022-09-23T02:16:44.220Z,98660.91
2022-09-23T02:18:56.037Z,98647.94
2022-09-23T02:21:05.617Z,98654.91
2022-09-23T02:23:14.314Z,98653.25
2022-09-23T02:25:19.891Z,98654.22
2022-09-23T02:27:32.550Z,98656.84
2022-09-23T02:29:49.051Z,98656.03
2022-09-23T02:32:01.612Z,98652.72
2022-09-23T02:34:19.811Z,98649.31
2022-09-23T02:36:29.733Z,98651.06
2022-09-23T02:38:41.101Z,98649.31
2022-09-23T02:40:55.530Z,98649.41
2022-09-23T02:43:08.821Z,98652.13
2022-09-23T02:45:13.662Z,98657.44
2022-09-23T02:47:21.946Z,98652.25
2022-09-23T02:49:31.256Z,98659.25
2022-09-23T02:51:38.261Z,98655.00
2022-09-23T02:53:43.426Z,98651.56
2022-09-23T02:55:48.315Z,98649.06
2022-09-23T02:57:53.514Z,98651.81
2022-09-23T02:59:58.680Z,98649.31
2022-09-23T03:02:18.421Z,98646.63
2022-09-23T03:04:38.520Z,98648.41
2022-09-23T03:06:55.104Z,98649.28
2022-09-23T03:09:04.391Z,98645.06
2022-09-23T03:11:11.388Z,98646.81
2022-09-23T03:13:26.106Z,98646.69
2022-09-23T03:15:40.517Z,98640.56
2022-09-23T03:17:53.752Z,98644.06
2022-09-23T03:20:05.765Z,98642.38
2022-09-23T03:22:13.213Z,98638.88
2022-09-23T03:24:18.844Z,98637.97
2022-09-23T03:26:31.142Z,98643.16
2022-09-23T03:28:39.346Z,98640.56
2022-09-23T03:30:45.460Z,98641.44
2022-09-23T03:32:51.269Z,98639.75
2022-09-23T03:34:59.358Z,98637.97
2022-09-23T03:37:14.179Z,98629.31
2022-09-23T03:39:30.338Z,98632.00
2022-09-23T03:41:40.600Z,98627.72
2022-09-23T03:43:47.803Z,98626.16
2022-09-23T03:45:57.784Z,98624.47
2022-09-23T03:48:03.299Z,98620.13
2022-09-23T03:50:09.285Z,98625.31
2022-09-23T03:52:16.705Z,98620.13
2022-09-23T03:54:22.107Z,98622.72
2022-09-23T03:56:27.012Z,98622.78
2022-09-23T03:58:31.773Z,98615.84
2022-09-23T04:00:37.151Z,98613.22
2022-09-23T04:02:41.901Z,98616.75
2022-09-23T04:04:46.734Z,98613.34
2022-09-23T04:06:51.897Z,98612.44
2022-09-23T04:08:58.994Z,98621.97
2022-09-23T04:11:04.764Z,98616.75
2022-09-23T04:13:09.585Z,98610.53
2022-09-23T04:15:14.558Z,98609.66
2022-09-23T04:17:19.665Z,98610.47
2022-09-23T04:19:24.508Z,98607.00
2022-09-23T04:21:30.297Z,98600.91
2022-09-23T04:23:35.040Z,98606.06
2022-09-23T04:25:50.173Z,98600.81
2022-09-23T04:27:54.918Z,98597.34
2022-09-23T04:29:59.753Z,98598.22
2022-09-23T04:32:04.938Z,98597.34
2022-09-23T04:34:09.456Z,98596.56
2022-09-23T04:36:14.224Z,98600.91
2022-09-23T04:38:18.976Z,98598.28
2022-09-23T04:40:23.748Z,98593.97
2022-09-23T04:42:33.786Z,98593.13
2022-09-23T04:44:39.030Z,98593.22
2022-09-23T04:46:45.390Z,98588.25
2022-09-23T04:48:50.032Z,98600.50
2022-09-23T04:50:54.871Z,98594.66
2022-09-23T04:52:59.580Z,98594.63
2022-09-23T04:55:06.943Z,98590.38
2022-09-23T04:57:15.186Z,98590.44
2022-09-23T04:59:25.059Z,98587.94
2022-09-23T05:01:31.526Z,98591.38
2022-09-23T05:03:37.104Z,98598.19
2022-09-23T05:05:41.988Z,98589.44
2022-09-23T05:07:46.823Z,98596.31
2022-09-23T05:09:51.713Z,98595.38
2022-09-23T05:11:56.791Z,98599.72
2022-09-23T05:14:03.601Z,98601.56
2022-09-23T05:16:13.982Z,98592.88
2022-09-23T05:18:20.868Z,98597.19
2022-09-23T05:20:25.778Z,98591.19
2022-09-23T05:22:32.243Z,98595.44
2022-09-23T05:24:37.222Z,98592.94
2022-09-23T05:26:42.820Z,98593.00
2022-09-23T05:28:47.585Z,98598.22
2022-09-23T05:30:52.352Z,98597.38
2022-09-23T05:32:59.674Z,98595.69
2022-09-23T05:35:04.640Z,98593.97
2022-09-23T05:37:09.440Z,98597.38
2022-09-23T05:39:16.946Z,98600.72
2022-09-23T05:41:23.452Z,98596.38
2022-09-23T05:43:28.909Z,98596.47
2022-09-23T05:45:33.769Z,98603.31
2022-09-23T05:47:38.550Z,98605.00
2022-09-23T05:49:59.041Z,98605.84
2022-09-23T05:52:08.211Z,98603.22
2022-09-23T05:54:13.014Z,98604.81
2022-09-23T05:56:19.769Z,98609.94
2022-09-23T05:58:24.617Z,98610.94
2022-09-23T06:00:29.359Z,98615.16
2022-09-23T06:02:34.384Z,98616.81
2022-09-23T06:04:39.921Z,98614.16
2022-09-23T06:06:47.396Z,98607.94
2022-09-23T06:08:52.222Z,98607.00
2022-09-23T06:10:56.978Z,98610.31
2022-09-23T06:13:01.687Z,98608.50
2022-09-23T06:15:07.631Z,98609.38
2022-09-23T06:17:12.380Z,98611.09
2022-09-23T06:19:17.182Z,98607.59
2022-09-23T06:21:22.009Z,98610.16
2022-09-23T06:23:29.413Z,98603.97
2022-09-23T06:25:35.055Z,98603.03
2022-09-23T06:27:39.797Z,98602.13
2022-09-23T06:29:44.552Z,98604.53
2022-09-23T06:31:52.880Z,98607.81
2022-09-23T06:34:08.421Z,98607.56
2022-09-23T06:36:32.866Z,98612.53
2022-09-23T06:38:49.309Z,98614.94
2022-09-23T06:40:54.683Z,98609.75
2022-09-23T06:43:03.431Z,98610.59
2022-09-23T06:45:13.125Z,98603.56
2022-09-23T06:47:17.911Z,98601.66
2022-09-23T06:49:26.659Z,98604.84
2022-09-23T06:51:31.402Z,98603.75
2022-09-23T06:53:39.518Z,98610.47
2022-09-23T06:55:47.137Z,98605.97
2022-09-23T06:57:51.988Z,98603.22
2022-09-23T06:59:58.534Z,98601.41
2022-09-23T07:02:03.499Z,98595.16
2022-09-23T07:04:08.695Z,98600.31
2022-09-23T07:06:14.412Z,98601.97
2022-09-23T07:08:19.275Z,98597.44
2022-09-23T07:10:24.163Z,98594.66
2022-09-23T07:12:31.565Z,98600.50
2022-09-23T07:14:36.338Z,98597.59
2022-09-23T07:16:41.858Z,98593.06
2022-09-23T07:18:47.140Z,98595.50
2022-09-23T07:20:52.018Z,98592.66
2022-09-23T07:22:56.994Z,98590.66
2022-09-23T07:25:01.781Z,98589.44
2022-09-23T07:27:06.864Z,98593.47
2022-09-23T07:29:17.476Z,98583.66
2022-09-23T07:31:35.266Z,98585.94
2022-09-23T07:33:44.452Z,98577.03
2022-09-23T07:35:49.467Z,98573.19
2022-09-23T07:37:54.295Z,98571.34
2022-09-23T07:39:59.140Z,98574.63
2022-09-23T07:42:05.308Z,98579.34
2022-09-23T07:44:11.155Z,98572.97
2022-09-23T07:46:20.546Z,98571.97
2022-09-23T07:48:25.363Z,98577.78
2022-09-23T07:50:32.002Z,98575.75
2022-09-23T07:52:39.104Z,98571.00
2022-09-23T07:54:43.843Z,98570.41
2022-09-23T07:56:49.405Z,98575.88
2022-09-23T07:59:03.933Z,98562.25
2022-09-23T08:01:13.078Z,98562.56
2022-09-23T08:03:20.617Z,98558.41
2022-09-23T08:05:25.537Z,98550.78
2022-09-23T08:07:30.290Z,98555.50
2022-09-23T08:09:39.439Z,98538.56
2022-09-23T08:11:44.542Z,98541.03
2022-09-23T08:13:49.052Z,98524.09
2022-09-23T08:15:55.683Z,98522.91
2022-09-23T08:18:02.921Z,98512.19
2022-09-23T08:20:31.707Z,98515.38
2022-09-23T08:22:36.462Z,98509.19
2022-09-23T08:24:41.303Z,98509.53
2022-09-23T08:26:47.079Z,98513.94
2022-09-23T08:28:53.935Z,98508.69
2022-09-23T08:30:58.742Z,98510.13
2022-09-23T08:33:03.763Z,98505.81
2022-09-23T08:35:11.940Z,98508.88
2022-09-23T08:37:16.658Z,98504.91
2022-09-23T08:39:25.621Z,98514.34
2022-09-23T08:41:40.177Z,98502.50
2022-09-23T08:43:51.314Z,98503.91
2022-09-23T08:45:58.783Z,98510.16
2022-09-23T08:48:12.943Z,98502.47
2022-09-23T08:50:23.568Z,98509.63
2022-09-23T08:52:50.595Z,98505.31
2022-09-23T08:54:55.701Z,98500.31
2022-09-23T08:57:05.015Z,98502.06
2022-09-23T08:59:16.167Z,98499.16
2022-09-23T09:01:26.830Z,98496.97
2022-09-23T09:03:38.426Z,98497.56
2022-09-23T09:05:53.984Z,98490.34
2022-09-23T09:08:03.151Z,98487.38
2022-09-23T09:10:13.834Z,98482.75
2022-09-23T09:12:21.881Z,98474.13
2022-09-23T09:14:29.625Z,98474.06
2022-09-23T09:17:06.221Z,98472.72
2022-09-23T09:19:20.141Z,98473.31
2022-09-23T09:21:32.543Z,98478.38
2022-09-23T09:23:43.550Z,98470.88
2022-09-23T09:25:52.190Z,98473.09
2022-09-23T09:27:58.654Z,98474.47
2022-09-23T09:30:04.071Z,98470.50
2022-09-23T09:32:19.644Z,98468.13
2022-09-23T09:34:36.801Z,98474.53
2022-09-23T09:36:50.537Z,98466.31
2022-09-23T09:38:58.624Z,98459.69
2022-09-23T09:41:12.168Z,98453.91
2022-09-23T09:43:23.648Z,98454.97
2022-09-23T09:45:57.720Z,98444.31
2022-09-23T09:48:10.922Z,98444.72
2022-09-23T09:50:21.747Z,98441.53
2022-09-23T09:52:30.377Z,98442.97
2022-09-23T09:54:35.042Z,98436.81
2022-09-23T09:56:40.035Z,98446.75
2022-09-23T09:58:49.453Z,98441.34
2022-09-23T10:00:55.489Z,98429.63
2022-09-23T10:03:04.204Z,98431.84
2022-09-23T10:05:25.781Z,98428.88
2022-09-23T10:07:34.874Z,98430.19
2022-09-23T10:09:43.229Z,98423.81
2022-09-23T10:12:07.570Z,98422.34
2022-09-23T10:14:19.805Z,98414.91
2022-09-23T10:16:24.626Z,98412.84
2022-09-23T10:18:33.631Z,98413.50
2022-09-23T10:20:39.578Z,98407.31
2022-09-23T10:22:47.163Z,98413.97
2022-09-23T10:24:55.210Z,98412.34
2022-09-23T10:27:04.404Z,98410.91
2022-09-23T10:29:26.025Z,98406.41
2022-09-23T10:31:32.350Z,98406.09
2022-09-23T10:33:42.466Z,98398.69
2022-09-23T10:35:57.349Z,98395.31
2022-09-23T10:38:04.753Z,98397.56
2022-09-23T10:40:51.175Z,98392.84
2022-09-23T10:43:26.368Z,98390.84
2022-09-23T10:45:49.018Z,98390.19
2022-09-23T10:48:03.507Z,98379.72
2022-09-23T10:50:23.251Z,98382.59
2022-09-23T10:52:48.238Z,98373.97
2022-09-23T10:55:10.240Z,98370.84
2022-09-23T10:57:43.494Z,98365.25
2022-09-23T11:00:01.292Z,98365.81
2022-09-23T11:02:20.637Z,98361.00
2022-09-23T11:04:51.622Z,98360.22
2022-09-23T11:07:14.402Z,98360.16
2022-09-23T11:09:32.161Z,98357.63
2022-09-23T11:11:51.498Z,98352.97
2022-09-23T11:14:25.434Z,98352.66
2022-09-23T11:16:43.292Z,98356.47
2022-09-23T11:19:02.208Z,98352.44
2022-09-23T11:21:22.649Z,98346.63
2022-09-23T11:24:01.965Z,98351.16
2022-09-23T11:26:17.578Z,98346.16
2022-09-23T11:28:55.161Z,98343.81
2022-09-23T11:31:10.692Z,98339.06
2022-09-23T11:33:41.988Z,98331.16
2022-09-23T11:35:50.530Z,98329.34
2022-09-23T11:38:03.495Z,98330.94
2022-09-23T11:40:19.127Z,98325.88
2022-09-23T11:42:28.014Z,98318.28
2022-09-23T11:44:41.196Z,98316.63
2022-09-23T11:46:52.916Z,98315.44
2022-09-23T11:49:01.907Z,98313.75
2022-09-23T11:51:14.848Z,98301.44
2022-09-23T11:53:26.312Z,98301.19
2022-09-23T11:55:36.427Z,98296.91
2022-09-23T11:57:49.361Z,98300.19
2022-09-23T12:00:02.862Z,98291.56
2022-09-23T12:02:22.883Z,98298.72
2022-09-23T12:04:34.876Z,98293.13
2022-09-23T12:06:44.822Z,98294.81
2022-09-23T12:08:53.316Z,98297.34
2022-09-23T12:11:06.607Z,98295.59
2022-09-23T12:13:20.262Z,98299.00
2022-09-23T12:15:41.375Z,98295.47
2022-09-23T12:18:18.442Z,98295.69
2022-09-23T12:20:40.754Z,98294.63
2022-09-23T12:22:58.416Z,98289.84
2022-09-23T12:25:18.472Z,98284.47
2022-09-23T12:27:33.194Z,98278.47
2022-09-23T12:29:39.473Z,98280.03
2022-09-23T12:31:48.298Z,98277.09
2022-09-23T12:33:54.957Z,98272.22
2022-09-23T12:36:06.533Z,98270.94
2022-09-23T12:38:22.414Z,98269.03
2022-09-23T12:40:33.428Z,98265.66
2022-09-23T12:42:44.260Z,98254.16
2022-09-23T12:44:51.112Z,98254.81
2022-09-23T12:47:29.017Z,98255.50
2022-09-23T12:49:41.780Z,98259.72
2022-09-23T12:52:16.773Z,98244.25
2022-09-23T12:54:27.189Z,98244.69
2022-09-23T12:57:02.447Z,98246.94
2022-09-23T12:59:23.644Z,98236.53
2022-09-23T13:01:29.380Z,98236.09
2022-09-23T13:03:46.706Z,98238.97
2022-09-23T13:06:08.376Z,98241.94
2022-09-23T13:08:18.817Z,98231.19
2022-09-23T13:10:33.594Z,98236.22
2022-09-23T13:12:42.059Z,98229.16
2022-09-23T13:14:49.988Z,98235.63
2022-09-23T13:16:56.250Z,98229.97
2022-09-23T13:19:02.620Z,98220.25
2022-09-23T13:21:20.154Z,98224.47
2022-09-23T13:23:27.430Z,98219.44
2022-09-23T13:25:35.135Z,98214.25
2022-09-23T13:27:40.693Z,98212.50
2022-09-23T13:29:49.267Z,98211.63
2022-09-23T13:31:58.018Z,98205.53
2022-09-23T13:34:07.249Z,98204.81
2022-09-23T13:36:18.165Z,98203.63
2022-09-23T13:38:26.263Z,98203.22
2022-09-23T13:40:32.457Z,98197.94
2022-09-23T13:42:42.037Z,98194.88
2022-09-23T13:44:46.849Z,98196.97
2022-09-23T13:46:54.615Z,98183.34
2022-09-23T13:48:59.881Z,98181.84
2022-09-23T13:51:12.550Z,98179.34
2022-09-23T13:53:30.802Z,98179.97
2022-09-23T13:55:37.566Z,98183.94
2022-09-23T13:57:42.428Z,98191.28
2022-09-23T13:59:50.416Z,98182.94
2022-09-23T14:02:05.855Z,98180.91
2022-09-23T14:04:26.477Z,98182.75
2022-09-23T14:06:33.534Z,98186.72
2022-09-23T14:08:41.644Z,98187.88
2022-09-23T14:10:49.231Z,98188.50
2022-09-23T14:13:00.456Z,98174.75
2022-09-23T14:15:07.331Z,98183.97
2022-09-23T14:17:16.947Z,98174.31
2022-09-23T14:19:30.912Z,98174.25
2022-09-23T14:21:39.404Z,98171.75
2022-09-23T14:23:50.095Z,98170.91
2022-09-23T14:25:59.016Z,98170.44
2022-09-23T14:28:08.822Z,98164.91
2022-09-23T14:30:19.754Z,98172.84
2022-09-23T14:32:28.381Z,98161.06
2022-09-23T14:34:48.523Z,98164.53
2022-09-23T14:37:05.905Z,98158.91
2022-09-23T14:39:15.362Z,98159.50
2022-09-23T14:41:26.587Z,98159.25
2022-09-23T14:43:31.780Z,98156.53
2022-09-23T14:45:37.384Z,98156.53
2022-09-23T14:47:47.903Z,98161.22
2022-09-23T14:50:06.116Z,98154.81
2022-09-23T14:52:11.040Z,98150.03
2022-09-23T14:54:38.320Z,98147.88
2022-09-23T14:56:47.384Z,98154.59
2022-09-23T14:58:55.452Z,98143.56
2022-09-23T15:01:05.388Z,98143.81
2022-09-23T15:03:20.506Z,98137.56
2022-09-23T15:05:33.008Z,98139.06
2022-09-23T15:07:40.474Z,98138.38
2022-09-23T15:09:48.461Z,98138.63
2022-09-23T15:12:02.501Z,98127.91
2022-09-23T15:14:36.823Z,98125.03
2022-09-23T15:16:44.048Z,98126.69
2022-09-23T15:18:57.378Z,98127.66
2022-09-23T15:21:11.344Z,98125.03
2022-09-23T15:23:38.386Z,98129.91
2022-09-23T15:25:45.735Z,98120.78
2022-09-23T15:28:21.621Z,98130.22
2022-09-23T15:30:28.814Z,98123.03
2022-09-23T15:32:33.575Z,98122.06
2022-09-23T15:34:39.332Z,98123.03
2022-09-23T15:36:48.453Z,98128.28
2022-09-23T15:38:55.178Z,98113.19
2022-09-23T15:41:03.109Z,98118.88
2022-09-23T15:43:21.925Z,98109.22
2022-09-23T15:45:36.703Z,98108.25
2022-09-23T15:47:44.214Z,98104.78
2022-09-23T15:49:49.939Z,98103.81
2022-09-23T15:52:00.176Z,98111.72
2022-09-23T15:54:13.908Z,98112.53
2022-09-23T15:56:21.299Z,98112.06
2022-09-23T15:58:26.345Z,98107.97
2022-09-23T16:00:32.487Z,98107.38
2022-09-23T16:02:37.243Z,98108.09
2022-09-23T16:04:42.113Z,98104.28
2022-09-23T16:06:52.848Z,98111.09
2022-09-23T16:08:58.351Z,98108.34
2022-09-23T16:11:04.279Z,98110.28
2022-09-23T16:13:16.855Z,98108.69
2022-09-23T16:15:25.004Z,98099.13
2022-09-23T16:17:32.671Z,98100.44
2022-09-23T16:19:39.810Z,98100.72
2022-09-23T16:21:47.752Z,98098.94
2022-09-23T16:23:54.606Z,98103.34
2022-09-23T16:26:01.223Z,98093.78
2022-09-23T16:28:07.351Z,98087.56
2022-09-23T16:30:15.456Z,98084.19
2022-09-23T16:32:22.377Z,98088.00
2022-09-23T16:34:29.883Z,98086.53
2022-09-23T16:36:44.854Z,98084.03
2022-09-23T16:38:52.369Z,98080.91
2022-09-23T16:41:00.942Z,98082.09
2022-09-23T16:43:13.640Z,98080.75
2022-09-23T16:45:24.204Z,98077.59
2022-09-23T16:47:29.048Z,98080.59
2022-09-23T16:49:36.081Z,98078.28
2022-09-23T16:51:44.515Z,98084.59
2022-09-23T16:53:51.192Z,98075.97
2022-09-23T16:55:59.874Z,98086.72
2022-09-23T16:58:09.754Z,98092.31
2022-09-23T17:00:30.194Z,98090.97
2022-09-23T17:02:53.028Z,98090.66
2022-09-23T17:05:01.567Z,98086.81
2022-09-23T17:07:13.590Z,98080.19
2022-09-23T17:09:20.173Z,98081.47
2022-09-23T17:11:25.533Z,98078.53
2022-09-23T17:13:34.810Z,98090.38
2022-09-23T17:15:40.032Z,98087.34
2022-09-23T17:17:47.085Z,98091.66
2022-09-23T17:19:51.877Z,98089.47
2022-09-23T17:21:56.971Z,98091.56
2022-09-23T17:24:01.999Z,98092.09
2022-09-23T17:26:09.854Z,98091.66
2022-09-23T17:28:15.076Z,98094.84
2022-09-23T17:30:19.996Z,98094.28
2022-09-23T17:32:24.800Z,98091.25
2022-09-23T17:34:33.538Z,98086.28
2022-09-23T17:36:39.722Z,98091.97
2022-09-23T17:38:57.544Z,98092.25
2022-09-23T17:41:04.949Z,98097.81
2022-09-23T17:43:11.268Z,98097.28
2022-09-23T17:45:18.598Z,98094.22
2022-09-23T17:47:41.433Z,98105.22
2022-09-23T17:49:49.992Z,98105.50
2022-09-23T17:51:55.883Z,98111.88
2022-09-23T17:54:05.623Z,98111.44
2022-09-23T17:56:15.044Z,98109.84
2022-09-23T17:58:19.944Z,98108.56
2022-09-23T18:00:24.785Z,98114.00
2022-09-23T18:02:29.641Z,98118.72
2022-09-23T18:04:37.181Z,98115.34
2022-09-23T18:06:44.651Z,98118.78
2022-09-23T18:08:54.585Z,98108.41
2022-09-23T18:10:59.309Z,98109.34
2022-09-23T18:13:04.162Z,98104.22
2022-09-23T18:15:09.394Z,98104.28
2022-09-23T18:17:16.328Z,98106.47
2022-09-23T18:19:23.089Z,98097.84
2022-09-23T18:21:29.351Z,98106.66
2022-09-23T18:23:36.682Z,98102.53
2022-09-23T18:25:41.484Z,98097.59
2022-09-23T18:27:46.201Z,98100.50
2022-09-23T18:29:50.998Z,98100.69
2022-09-23T18:31:56.103Z,98097.44
2022-09-23T18:34:01.075Z,98102.13
2022-09-23T18:36:06.474Z,98105.88
2022-09-23T18:38:11.251Z,98111.31
2022-09-23T18:40:18.943Z,98104.47
2022-09-23T18:42:23.784Z,98102.88
2022-09-23T18:44:28.554Z,98108.13
2022-09-23T18:46:34.018Z,98111.69
2022-09-23T18:48:51.213Z,98117.13
2022-09-23T18:50:53.886Z,98114.69
2022-09-23T18:53:01.561Z,98114.78
2022-09-23T18:55:06.991Z,98119.38
2022-09-23T18:57:15.249Z,98114.41
2022-09-23T18:59:23.870Z,98121.59
2022-09-23T19:01:29.213Z,98119.94
2022-09-23T19:03:34.150Z,98114.69
2022-09-23T19:05:38.898Z,98116.63
2022-09-23T19:07:43.703Z,98115.97
2022-09-23T19:09:48.447Z,98113.47
2022-09-23T19:11:53.853Z,98111.69
2022-09-23T19:14:03.304Z,98115.16
2022-09-23T19:16:10.729Z,98118.78
2022-09-23T19:18:15.504Z,98117.16
2022-09-23T19:20:20.884Z,98118.38
2022-09-23T19:22:25.661Z,98123.78
2022-09-23T19:24:30.437Z,98128.47
2022-09-23T19:26:41.052Z,98134.81
2022-09-23T19:28:51.510Z,98137.63
2022-09-23T19:30:59.152Z,98135.19
2022-09-23T19:33:04.202Z,98133.78
2022-09-23T19:35:10.503Z,98135.72
2022-09-23T19:37:16.629Z,98134.13
2022-09-23T19:39:26.328Z,98132.47
2022-09-23T19:41:32.400Z,98135.41
2022-09-23T19:43:38.532Z,98142.72
2022-09-23T19:45:44.491Z,98134.00
2022-09-23T19:47:56.506Z,98137.56
2022-09-23T19:50:01.334Z,98137.66
2022-09-23T19:52:06.106Z,98131.47
2022-09-23T19:54:12.018Z,98139.41
2022-09-23T19:56:20.069Z,98135.22
2022-09-23T19:58:25.683Z,98131.56
2022-09-23T20:00:30.815Z,98131.66
2022-09-23T20:02:36.369Z,98136.72
2022-09-23T20:04:43.683Z,98129.63
2022-09-23T20:06:49.694Z,98126.81
2022-09-23T20:08:57.505Z,98136.28
2022-09-23T20:11:03.613Z,98129.16
2022-09-23T20:13:08.426Z,98122.00
2022-09-23T20:15:14.467Z,98129.66
2022-09-23T20:17:20.074Z,98120.94
2022-09-23T20:19:25.096Z,98120.88
2022-09-23T20:21:33.737Z,98119.09
2022-09-23T20:23:38.751Z,98120.03
2022-09-23T20:25:55.886Z,98126.34
2022-09-23T20:28:00.640Z,98117.66
2022-09-23T20:30:05.515Z,98121.31
2022-09-23T20:32:11.442Z,98107.31
2022-09-23T20:34:16.253Z,98111.66
2022-09-23T20:36:24.590Z,98119.03
2022-09-23T20:38:32.177Z,98110.44
2022-09-23T20:40:38.598Z,98106.44
2022-09-23T20:42:43.431Z,98108.19
2022-09-23T20:44:49.177Z,98106.44
2022-09-23T20:46:54.040Z,98108.00
2022-09-23T20:48:59.035Z,98108.94
2022-09-23T20:51:04.123Z,98111.38
2022-09-23T20:53:09.157Z,98103.44
2022-09-23T20:55:18.457Z,98105.31
2022-09-23T20:57:23.274Z,98106.44
2022-09-23T20:59:28.031Z,98100.63
2022-09-23T21:01:36.581Z,98106.94
2022-09-23T21:03:43.834Z,98106.19
2022-09-23T21:05:49.897Z,98109.00
2022-09-23T21:07:54.643Z,98110.00
2022-09-23T21:10:01.979Z,98108.31
2022-09-23T21:12:09.539Z,98110.84
2022-09-23T21:14:14.585Z,98107.47
2022-09-23T21:16:21.461Z,98104.19
2022-09-23T21:18:26.372Z,98105.31
2022-09-23T21:20:31.933Z,98105.38
2022-09-23T21:22:36.849Z,98108.94
2022-09-23T21:27:09.473Z,98103.03
2022-09-23T21:29:14.452Z,98103.88
2022-09-23T21:31:25.838Z,98092.31
2022-09-23T21:33:31.431Z,98096.69
2022-09-23T21:35:36.225Z,98096.53
2022-09-23T21:37:40.926Z,98097.28
2022-09-23T21:40:06.670Z,98102.34
2022-09-23T21:42:14.047Z,98104.56
2022-09-23T21:44:18.850Z,98098.47
2022-09-23T21:46:24.128Z,98107.69
2022-09-23T21:48:33.382Z,98106.16
2022-09-23T21:50:40.872Z,98105.50
2022-09-23T21:52:46.464Z,98100.38
2022-09-23T21:54:51.189Z,98095.88
2022-09-23T21:56:56.051Z,98095.03
2022-09-23T21:59:04.049Z,98096.63
2022-09-23T22:01:12.837Z,98098.50
2022-09-23T22:03:17.712Z,98095.03
2022-09-23T22:05:23.848Z,98092.41
2022-09-23T22:07:28.635Z,98087.97
2022-09-23T22:09:33.453Z,98083.56
2022-09-23T22:11:52.175Z,98080.78
2022-09-23T22:13:56.920Z,98076.50
2022-09-23T22:16:07.514Z,98072.34
2022-09-23T22:18:12.369Z,98079.44
2022-09-23T22:20:17.253Z,98077.84
2022-09-23T22:22:22.441Z,98069.16
2022-09-23T22:24:27.221Z,98071.03
2022-09-23T22:26:34.211Z,98064.84
2022-09-23T22:28:51.395Z,98062.06
2022-09-23T22:31:08.634Z,98070.84
2022-09-23T22:33:17.790Z,98066.44
2022-09-23T22:35:23.027Z,98065.78
2022-09-23T22:37:28.846Z,98067.22
2022-09-23T22:39:34.140Z,98074.34
2022-09-23T22:41:39.494Z,98081.06
2022-09-23T22:43:44.315Z,98076.59
2022-09-23T22:45:52.493Z,98079.78
2022-09-23T22:47:57.413Z,98085.19
2022-09-23T22:50:04.753Z,98088.72
2022-09-23T22:52:11.456Z,98082.72
2022-09-23T22:54:16.273Z,98091.53
2022-09-23T22:56:22.104Z,98088.97
2022-09-23T22:58:32.534Z,98086.63
2022-09-23T23:00:38.676Z,98090.41
2022-09-23T23:02:43.447Z,98096.50
2022-09-23T23:04:50.857Z,98089.56
2022-09-23T23:06:58.617Z,98084.41
2022-09-23T23:09:03.689Z,98092.53
2022-09-23T23:11:10.191Z,98094.53
2022-09-23T23:13:16.430Z,98089.47
2022-09-23T23:15:21.257Z,98089.72
2022-09-23T23:17:26.044Z,98083.81
2022-09-23T23:19:30.818Z,98084.16
2022-09-23T23:21:36.638Z,98085.28
2022-09-23T23:23:46.215Z,98081.72
2022-09-23T23:25:51.045Z,98082.56
2022-09-23T23:27:56.102Z,98083.50
2022-09-23T23:30:00.854Z,98080.19
2022-09-23T23:32:06.071Z,98090.63
2022-09-23T23:34:13.346Z,98084.06
2022-09-23T23:36:20.307Z,98086.75
2022-09-23T23:38:25.146Z,98083.41
2022-09-23T23:40:32.630Z,98081.63
2022-09-23T23:42:37.431Z,98073.84
2022-09-23T23:44:42.163Z,98078.22
2022-09-23T23:46:47.054Z,98082.63
2022-09-23T23:48:52.171Z,98078.22
2022-09-23T23:50:57.114Z,98077.22
2022-09-23T23:53:02.018Z,98072.78
2022-09-23T23:55:07.463Z,98066.63
2022-09-23T23:57:14.777Z,98068.22
2022-09-23T23:59:20.205Z,98069.16
